sensor_id;sensor_type;location;lat;lon;timestamp;P1;durP1;ratioP1;P2;durP2;ratioP2
24301;SDS011;12421;49.732;20.078;2023-08-06T00:02:39;8.10;;;4.70;;
24301;SDS011;12421;49.732;20.078;2023-08-06T00:12:43;7.30;;;4.80;;
24301;SDS011;12421;49.732;20.078;2023-08-06T00:22:46;9.50;;;4.70;;
24301;SDS011;12421;49.732;20.078;2023-08-06T00:32:49;7.00;;;4.70;;
24301;SDS011;12421;49.732;20.078;2023-08-06T00:42:53;5.30;;;4.30;;
24301;SDS011;12421;49.732;20.078;2023-08-06T00:52:56;4.90;;;4.20;;
24301;SDS011;12421;49.732;20.078;2023-08-06T01:25:02;6.70;;;5.00;;
24301;SDS011;12421;49.732;20.078;2023-08-06T01:35:22;6.40;;;4.90;;
24301;SDS011;12421;49.732;20.078;2023-08-06T01:56:00;6.20;;;3.50;;
24301;SDS011;12421;49.732;20.078;2023-08-06T02:06:14;9.90;;;4.40;;
24301;SDS011;12421;49.732;20.078;2023-08-06T02:16:42;9.50;;;4.00;;
24301;SDS011;12421;49.732;20.078;2023-08-06T02:26:49;7.70;;;5.20;;
24301;SDS011;12421;49.732;20.078;2023-08-06T02:37:00;5.20;;;4.00;;
24301;SDS011;12421;49.732;20.078;2023-08-06T02:57:35;5.20;;;4.40;;
24301;SDS011;12421;49.732;20.078;2023-08-06T03:07:50;6.10;;;4.30;;
24301;SDS011;12421;49.732;20.078;2023-08-06T03:18:46;7.70;;;3.70;;
24301;SDS011;12421;49.732;20.078;2023-08-06T03:39:27;5.80;;;4.70;;
24301;SDS011;12421;49.732;20.078;2023-08-06T03:49:44;8.30;;;4.80;;
24301;SDS011;12421;49.732;20.078;2023-08-06T04:00:06;9.60;;;4.60;;
24301;SDS011;12421;49.732;20.078;2023-08-06T04:10:30;10.50;;;6.70;;
24301;SDS011;12421;49.732;20.078;2023-08-06T04:21:07;7.50;;;6.20;;
24301;SDS011;12421;49.732;20.078;2023-08-06T04:31:15;9.30;;;5.70;;
24301;SDS011;12421;49.732;20.078;2023-08-06T04:41:30;7.00;;;5.40;;
24301;SDS011;12421;49.732;20.078;2023-08-06T04:51:37;12.80;;;5.70;;
24301;SDS011;12421;49.732;20.078;2023-08-06T05:12:31;6.60;;;5.30;;
24301;SDS011;12421;49.732;20.078;2023-08-06T05:33:12;5.90;;;5.20;;
24301;SDS011;12421;49.732;20.078;2023-08-06T05:43:39;5.20;;;4.60;;
24301;SDS011;12421;49.732;20.078;2023-08-06T05:54:14;5.80;;;4.30;;
24301;SDS011;12421;49.732;20.078;2023-08-06T06:04:28;7.50;;;3.60;;
24301;SDS011;12421;49.732;20.078;2023-08-06T06:14:43;7.40;;;4.30;;
24301;SDS011;12421;49.732;20.078;2023-08-06T06:25:11;5.40;;;4.10;;
24301;SDS011;12421;49.732;20.078;2023-08-06T06:45:57;5.80;;;4.60;;
24301;SDS011;12421;49.732;20.078;2023-08-06T07:07:09;4.70;;;3.80;;
24301;SDS011;12421;49.732;20.078;2023-08-06T07:27:31;3.90;;;2.90;;
24301;SDS011;12421;49.732;20.078;2023-08-06T07:37:35;4.40;;;3.40;;
24301;SDS011;12421;49.732;20.078;2023-08-06T07:47:47;4.10;;;3.00;;
24301;SDS011;12421;49.732;20.078;2023-08-06T07:58:09;4.40;;;2.40;;
24301;SDS011;12421;49.732;20.078;2023-08-06T08:08:13;4.80;;;3.30;;
24301;SDS011;12421;49.732;20.078;2023-08-06T08:18:38;3.40;;;2.30;;
24301;SDS011;12421;49.732;20.078;2023-08-06T08:28:46;3.90;;;2.50;;
24301;SDS011;12421;49.732;20.078;2023-08-06T08:38:49;3.10;;;1.70;;
24301;SDS011;12421;49.732;20.078;2023-08-06T08:49:06;2.90;;;1.40;;
24301;SDS011;12421;49.732;20.078;2023-08-06T09:09:49;3.50;;;1.50;;
24301;SDS011;12421;49.732;20.078;2023-08-06T09:19:53;1.70;;;1.00;;
24301;SDS011;12421;49.732;20.078;2023-08-06T09:30:38;1.90;;;1.10;;
24301;SDS011;12421;49.732;20.078;2023-08-06T09:41:06;2.20;;;1.30;;
24301;SDS011;12421;49.732;20.078;2023-08-06T09:51:35;12.80;;;5.20;;
24301;SDS011;12421;49.732;20.078;2023-08-06T10:02:17;2.90;;;1.70;;
24301;SDS011;12421;49.732;20.078;2023-08-06T10:12:52;1.60;;;0.70;;
24301;SDS011;12421;49.732;20.078;2023-08-06T10:23:09;1.10;;;0.30;;
24301;SDS011;12421;49.732;20.078;2023-08-06T10:33:55;1.00;;;0.40;;
24301;SDS011;12421;49.732;20.078;2023-08-06T10:44:05;1.10;;;0.30;;
24301;SDS011;12421;49.732;20.078;2023-08-06T10:54:47;0.50;;;0.30;;
24301;SDS011;12421;49.732;20.078;2023-08-06T11:17:02;1.00;;;0.40;;
24301;SDS011;12421;49.732;20.078;2023-08-06T11:28:00;0.80;;;0.40;;
24301;SDS011;12421;49.732;20.078;2023-08-06T11:38:04;1.30;;;0.40;;
24301;SDS011;12421;49.732;20.078;2023-08-06T11:48:14;0.30;;;0.20;;
24301;SDS011;12421;49.732;20.078;2023-08-06T11:58:51;0.70;;;0.20;;
24301;SDS011;12421;49.732;20.078;2023-08-06T12:10:00;1.50;;;0.20;;
24301;SDS011;12421;49.732;20.078;2023-08-06T12:20:33;0.40;;;0.20;;
24301;SDS011;12421;49.732;20.078;2023-08-06T12:30:42;0.20;;;0.10;;
24301;SDS011;12421;49.732;20.078;2023-08-06T13:02:53;0.60;;;0.30;;
24301;SDS011;12421;49.732;20.078;2023-08-06T13:13:05;1.50;;;0.20;;
24301;SDS011;12421;49.732;20.078;2023-08-06T13:23:14;0.20;;;0.10;;
24301;SDS011;12421;49.732;20.078;2023-08-06T13:33:31;0.50;;;0.20;;
24301;SDS011;12421;49.732;20.078;2023-08-06T13:43:57;0.20;;;0.10;;
24301;SDS011;12421;49.732;20.078;2023-08-06T13:54:01;0.40;;;0.10;;
24301;SDS011;12421;49.732;20.078;2023-08-06T14:04:13;2.30;;;0.10;;
24301;SDS011;12421;49.732;20.078;2023-08-06T14:14:27;1.80;;;0.30;;
24301;SDS011;12421;49.732;20.078;2023-08-06T14:24:59;0.30;;;0.20;;
24301;SDS011;12421;49.732;20.078;2023-08-06T14:35:59;1.00;;;0.30;;
24301;SDS011;12421;49.732;20.078;2023-08-06T14:46:29;0.90;;;0.20;;
24301;SDS011;12421;49.732;20.078;2023-08-06T15:08:16;1.20;;;0.40;;
24301;SDS011;12421;49.732;20.078;2023-08-06T15:18:43;1.90;;;0.80;;
24301;SDS011;12421;49.732;20.078;2023-08-06T15:29:32;2.10;;;0.80;;
24301;SDS011;12421;49.732;20.078;2023-08-06T15:39:45;2.90;;;0.80;;
24301;SDS011;12421;49.732;20.078;2023-08-06T15:49:49;0.80;;;0.40;;
24301;SDS011;12421;49.732;20.078;2023-08-06T16:00:08;0.90;;;0.30;;
24301;SDS011;12421;49.732;20.078;2023-08-06T16:10:30;0.90;;;0.30;;
24301;SDS011;12421;49.732;20.078;2023-08-06T16:21:09;2.00;;;0.60;;
24301;SDS011;12421;49.732;20.078;2023-08-06T16:31:26;3.50;;;0.60;;
24301;SDS011;12421;49.732;20.078;2023-08-06T16:41:55;2.20;;;0.70;;
24301;SDS011;12421;49.732;20.078;2023-08-06T17:02:27;1.20;;;0.40;;
24301;SDS011;12421;49.732;20.078;2023-08-06T17:12:41;1.40;;;0.70;;
24301;SDS011;12421;49.732;20.078;2023-08-06T17:33:49;1.60;;;0.80;;
24301;SDS011;12421;49.732;20.078;2023-08-06T17:54:43;2.50;;;0.90;;
24301;SDS011;12421;49.732;20.078;2023-08-06T18:04:56;4.40;;;0.70;;
24301;SDS011;12421;49.732;20.078;2023-08-06T18:16:04;2.20;;;0.60;;
24301;SDS011;12421;49.732;20.078;2023-08-06T18:26:59;2.60;;;0.70;;
24301;SDS011;12421;49.732;20.078;2023-08-06T18:37:10;3.00;;;0.60;;
24301;SDS011;12421;49.732;20.078;2023-08-06T18:47:45;1.50;;;0.70;;
24301;SDS011;12421;49.732;20.078;2023-08-06T18:58:57;2.00;;;1.10;;
24301;SDS011;12421;49.732;20.078;2023-08-06T19:20:34;1.00;;;0.30;;
24301;SDS011;12421;49.732;20.078;2023-08-06T19:53:19;2.80;;;0.40;;
24301;SDS011;12421;49.732;20.078;2023-08-06T20:03:36;0.90;;;0.30;;
24301;SDS011;12421;49.732;20.078;2023-08-06T20:47:31;1.30;;;0.30;;
24301;SDS011;12421;49.732;20.078;2023-08-06T21:31:32;2.30;;;0.60;;
24301;SDS011;12421;49.732;20.078;2023-08-06T21:41:54;1.40;;;0.50;;
24301;SDS011;12421;49.732;20.078;2023-08-06T22:14:22;1.00;;;0.50;;
24301;SDS011;12421;49.732;20.078;2023-08-06T22:25:03;2.50;;;0.60;;
24301;SDS011;12421;49.732;20.078;2023-08-06T22:46:56;8.20;;;0.60;;
24301;SDS011;12421;49.732;20.078;2023-08-06T23:08:24;1.40;;;0.50;;
24301;SDS011;12421;49.732;20.078;2023-08-06T23:18:46;1.20;;;0.60;;
24301;SDS011;12421;49.732;20.078;2023-08-06T23:51:54;4.60;;;0.80;;
